createdAt,value
2018-04-22T00:00:58.708Z,20.38
2018-04-22T00:01:58.689Z,20.5
2018-04-22T00:02:58.789Z,20.41
2018-04-22T00:03:58.695Z,20.37
2018-04-22T00:04:58.672Z,20.49
2018-04-22T00:05:58.654Z,20.41
2018-04-22T00:06:58.815Z,20.38
2018-04-22T00:07:58.696Z,20.49
2018-04-22T00:08:58.767Z,20.41
2018-04-22T00:09:58.615Z,20.37
2018-04-22T00:10:58.721Z,20.49
2018-04-22T00:11:58.794Z,20.41
2018-04-22T00:12:58.627Z,20.37
2018-04-22T00:13:58.710Z,20.48
2018-04-22T00:14:58.653Z,20.41
2018-04-22T00:15:58.908Z,20.37
2018-04-22T00:16:58.693Z,20.48
2018-04-22T00:17:58.660Z,20.41
2018-04-22T00:18:58.879Z,20.36
2018-04-22T00:19:58.610Z,20.48
2018-04-22T00:20:58.723Z,20.4
2018-04-22T00:21:58.835Z,20.36
2018-04-22T00:22:58.891Z,20.48
2018-04-22T00:23:58.640Z,20.41
2018-04-22T00:24:58.792Z,20.35
2018-04-22T00:25:58.758Z,20.47
2018-04-22T00:26:58.884Z,20.41
2018-04-22T00:27:58.664Z,20.36
2018-04-22T00:28:58.611Z,20.48
2018-04-22T00:29:58.780Z,20.39
2018-04-22T00:30:58.848Z,20.35
2018-04-22T00:31:58.791Z,20.47
2018-04-22T00:32:58.689Z,20.39
2018-04-22T00:33:58.720Z,20.35
2018-04-22T00:34:58.708Z,20.47
2018-04-22T00:35:58.820Z,20.39
2018-04-22T00:36:58.907Z,20.35
2018-04-22T00:37:58.600Z,20.46
2018-04-22T00:38:58.620Z,20.39
2018-04-22T00:39:58.779Z,20.35
2018-04-22T00:40:58.781Z,20.47
2018-04-22T00:41:58.806Z,20.4
2018-04-22T00:42:58.786Z,20.35
2018-04-22T00:43:58.626Z,20.47
2018-04-22T00:44:58.677Z,20.38
2018-04-22T00:45:58.706Z,20.35
2018-04-22T00:46:58.613Z,20.47
2018-04-22T00:47:58.722Z,20.38
2018-04-22T00:48:58.869Z,20.34
2018-04-22T00:49:58.841Z,20.46
2018-04-22T00:50:58.746Z,20.39
2018-04-22T00:51:58.781Z,20.35
2018-04-22T00:52:58.762Z,20.46
2018-04-22T00:53:58.601Z,20.39
2018-04-22T00:54:58.633Z,20.34
2018-04-22T00:55:58.704Z,20.46
2018-04-22T00:56:58.887Z,20.39
2018-04-22T00:57:58.869Z,20.35
2018-04-22T00:58:58.790Z,20.45
2018-04-22T00:59:58.596Z,20.38
2018-04-22T01:00:58.736Z,20.34
2018-04-22T01:01:58.755Z,20.46
2018-04-22T01:02:58.714Z,20.37
2018-04-22T01:03:58.834Z,20.33
2018-04-22T01:04:58.721Z,20.45
2018-04-22T01:05:58.543Z,20.38
2018-04-22T01:06:58.784Z,20.34
2018-04-22T01:07:58.628Z,20.46
2018-04-22T01:08:58.702Z,20.38
2018-04-22T01:09:58.780Z,20.34
2018-04-22T01:10:58.789Z,20.45
2018-04-22T01:11:58.793Z,20.38
2018-04-22T01:12:58.781Z,20.33
2018-04-22T01:13:58.703Z,20.45
2018-04-22T01:14:58.711Z,20.39
2018-04-22T01:15:58.809Z,20.33
2018-04-22T01:16:58.904Z,20.44
2018-04-22T01:17:58.778Z,20.36
2018-04-22T01:18:58.774Z,20.34
2018-04-22T01:19:58.822Z,20.45
2018-04-22T01:20:58.872Z,20.37
2018-04-22T01:21:58.836Z,20.33
2018-04-22T01:22:58.794Z,20.45
2018-04-22T01:23:58.739Z,20.37
2018-04-22T01:24:58.573Z,20.32
2018-04-22T01:25:58.881Z,20.43
2018-04-22T01:26:58.841Z,20.37
2018-04-22T01:27:58.651Z,20.33
2018-04-22T01:28:58.736Z,20.43
2018-04-22T01:29:58.984Z,20.35
2018-04-22T01:30:58.598Z,20.32
2018-04-22T01:31:58.729Z,20.44
2018-04-22T01:32:59.083Z,20.35
2018-04-22T01:33:58.868Z,20.32
2018-04-22T01:34:58.889Z,20.43
2018-04-22T01:35:58.675Z,20.35
2018-04-22T01:36:58.860Z,20.32
2018-04-22T01:37:58.704Z,20.42
2018-04-22T01:38:58.772Z,20.35
2018-04-22T01:39:58.679Z,20.31
2018-04-22T01:40:58.779Z,20.42
2018-04-22T01:41:58.947Z,20.35
2018-04-22T01:42:58.951Z,20.32
2018-04-22T01:43:58.804Z,20.42
2018-04-22T01:44:58.699Z,20.35
2018-04-22T01:45:58.867Z,20.3
2018-04-22T01:46:58.844Z,20.42
2018-04-22T01:47:58.738Z,20.35
2018-04-22T01:48:58.667Z,20.3
2018-04-22T01:49:58.562Z,20.41
2018-04-22T01:50:58.781Z,20.35
2018-04-22T01:51:58.811Z,20.3
2018-04-22T01:52:58.764Z,20.41
2018-04-22T01:53:58.642Z,20.33
2018-04-22T01:54:58.680Z,20.3
2018-04-22T01:55:59.002Z,20.42
2018-04-22T01:56:58.818Z,20.34
2018-04-22T01:57:58.608Z,20.3
2018-04-22T01:58:58.669Z,20.41
2018-04-22T01:59:58.799Z,20.33
2018-04-22T02:00:58.878Z,20.3
2018-04-22T02:01:58.791Z,20.41
2018-04-22T02:02:58.799Z,20.34
2018-04-22T02:03:58.755Z,20.3
2018-04-22T02:04:58.783Z,20.41
2018-04-22T02:05:58.568Z,20.32
2018-04-22T02:06:58.781Z,20.29
2018-04-22T02:07:58.773Z,20.41
2018-04-22T02:08:58.555Z,20.33
2018-04-22T02:09:58.779Z,20.29
2018-04-22T02:10:58.686Z,20.41
2018-04-22T02:11:59.087Z,20.33
2018-04-22T02:12:58.603Z,20.29
2018-04-22T02:13:58.684Z,20.41
2018-04-22T02:14:58.598Z,20.31
2018-04-22T02:15:58.740Z,20.27
2018-04-22T02:16:58.891Z,20.39
2018-04-22T02:17:59.225Z,20.31
2018-04-22T02:18:58.732Z,20.27
2018-04-22T02:19:58.586Z,20.4
2018-04-22T02:20:58.742Z,20.32
2018-04-22T02:21:58.916Z,20.27
2018-04-22T02:22:58.843Z,20.4
2018-04-22T02:23:58.688Z,20.31
2018-04-22T02:24:58.747Z,20.28
2018-04-22T02:25:58.713Z,20.39
2018-04-22T02:26:58.637Z,20.32
2018-04-22T02:27:58.611Z,20.28
2018-04-22T02:28:58.787Z,20.4
2018-04-22T02:29:58.778Z,20.3
2018-04-22T02:30:58.840Z,20.27
2018-04-22T02:31:58.765Z,20.38
2018-04-22T02:32:58.625Z,20.3
2018-04-22T02:33:58.800Z,20.27
2018-04-22T02:34:58.784Z,20.38
2018-04-22T02:35:58.827Z,20.3
2018-04-22T02:36:58.599Z,20.27
2018-04-22T02:37:58.794Z,20.39
2018-04-22T02:38:58.847Z,20.29
2018-04-22T02:39:58.851Z,20.25
2018-04-22T02:40:58.629Z,20.37
2018-04-22T02:41:58.756Z,20.3
2018-04-22T02:42:58.886Z,20.26
2018-04-22T02:43:58.615Z,20.38
2018-04-22T02:44:58.670Z,20.3
2018-04-22T02:45:58.779Z,20.25
2018-04-22T02:46:58.459Z,20.38
2018-04-22T02:47:58.614Z,20.3
2018-04-22T02:48:58.702Z,20.26
2018-04-22T02:49:58.868Z,20.38
2018-04-22T02:50:58.713Z,20.29
2018-04-22T02:51:58.690Z,20.25
2018-04-22T02:52:58.611Z,20.37
2018-04-22T02:53:58.612Z,20.29
2018-04-22T02:54:58.808Z,20.25
2018-04-22T02:55:58.785Z,20.37
2018-04-22T02:56:58.651Z,20.29
2018-04-22T02:57:58.786Z,20.25
2018-04-22T02:58:58.771Z,20.37
2018-04-22T02:59:58.674Z,20.28
2018-04-22T03:00:58.788Z,20.24
2018-04-22T03:01:58.631Z,20.36
2018-04-22T03:02:58.794Z,20.29
2018-04-22T03:03:58.551Z,20.24
2018-04-22T03:04:58.649Z,20.36
2018-04-22T03:05:58.548Z,20.28
2018-04-22T03:06:58.686Z,20.24
2018-04-22T03:07:59.104Z,20.36
2018-04-22T03:08:58.696Z,20.29
2018-04-22T03:09:58.748Z,20.24
2018-04-22T03:10:58.589Z,20.36
2018-04-22T03:11:58.701Z,20.29
2018-04-22T03:12:58.753Z,20.24
2018-04-22T03:13:58.610Z,20.35
2018-04-22T03:14:58.530Z,20.28
2018-04-22T03:15:58.714Z,20.24
2018-04-22T03:16:58.734Z,20.36
2018-04-22T03:17:58.790Z,20.28
2018-04-22T03:18:58.544Z,20.24
2018-04-22T03:19:58.550Z,20.35
2018-04-22T03:20:58.609Z,20.27
2018-04-22T03:21:58.606Z,20.24
2018-04-22T03:22:58.631Z,20.35
2018-04-22T03:23:58.779Z,20.27
2018-04-22T03:24:58.577Z,20.24
2018-04-22T03:25:58.720Z,20.35
2018-04-22T03:26:58.802Z,20.27
2018-04-22T03:27:58.742Z,20.24
2018-04-22T03:28:58.697Z,20.35
2018-04-22T03:29:58.547Z,20.26
2018-04-22T03:30:58.537Z,20.23
2018-04-22T03:31:58.754Z,20.35
2018-04-22T03:32:58.818Z,20.26
2018-04-22T03:33:58.662Z,20.24
2018-04-22T03:34:58.731Z,20.34
2018-04-22T03:35:58.793Z,20.26
2018-04-22T03:36:58.562Z,20.23
2018-04-22T03:37:58.810Z,20.35
2018-04-22T03:38:58.742Z,20.27
2018-04-22T03:39:58.627Z,20.23
2018-04-22T03:40:58.701Z,20.34
2018-04-22T03:41:58.817Z,20.26
2018-04-22T03:42:58.713Z,20.22
2018-04-22T03:43:58.549Z,20.34
2018-04-22T03:44:58.686Z,20.26
2018-04-22T03:45:58.735Z,20.22
2018-04-22T03:46:58.807Z,20.34
2018-04-22T03:47:58.814Z,20.25
2018-04-22T03:48:58.567Z,20.21
2018-04-22T03:49:58.516Z,20.35
2018-04-22T03:50:58.779Z,20.25
2018-04-22T03:51:58.761Z,20.22
2018-04-22T03:52:58.796Z,20.34
2018-04-22T03:53:58.691Z,20.27
2018-04-22T03:54:58.753Z,20.22
2018-04-22T03:55:58.632Z,20.32
2018-04-22T03:56:58.685Z,20.24
2018-04-22T03:57:58.718Z,20.21
2018-04-22T03:58:58.622Z,20.34
2018-04-22T03:59:58.557Z,20.25
2018-04-22T04:00:58.581Z,20.21
2018-04-22T04:01:58.677Z,20.34
2018-04-22T04:02:58.586Z,20.24
2018-04-22T04:03:58.625Z,20.22
2018-04-22T04:04:58.638Z,20.33
2018-04-22T04:05:58.724Z,20.25
2018-04-22T04:06:58.522Z,20.22
2018-04-22T04:07:58.772Z,20.33
2018-04-22T04:08:58.703Z,20.24
2018-04-22T04:09:58.878Z,20.21
2018-04-22T04:10:58.631Z,20.32
2018-04-22T04:11:58.687Z,20.25
2018-04-22T04:12:58.687Z,20.21
2018-04-22T04:13:58.558Z,20.33
2018-04-22T04:14:58.361Z,20.25
2018-04-22T04:15:58.836Z,20.21
2018-04-22T04:16:58.726Z,20.32
2018-04-22T04:17:58.718Z,20.24
2018-04-22T04:18:58.630Z,20.21
2018-04-22T04:19:58.529Z,20.32
2018-04-22T04:20:58.651Z,20.24
2018-04-22T04:21:58.741Z,20.21
2018-04-22T04:22:58.685Z,20.32
2018-04-22T04:23:58.840Z,20.24
2018-04-22T04:24:58.626Z,20.21
2018-04-22T04:25:58.623Z,20.33
2018-04-22T04:26:58.659Z,20.24
2018-04-22T04:27:58.499Z,20.2
2018-04-22T04:28:58.645Z,20.32
2018-04-22T04:29:58.656Z,20.24
2018-04-22T04:30:58.814Z,20.21
2018-04-22T04:31:58.709Z,20.32
2018-04-22T04:32:58.693Z,20.24
2018-04-22T04:33:58.595Z,20.21
2018-04-22T04:34:58.613Z,20.32
2018-04-22T04:35:59.038Z,20.24
2018-04-22T04:36:58.596Z,20.2
2018-04-22T04:37:58.751Z,20.32
2018-04-22T04:38:58.521Z,20.24
2018-04-22T04:39:58.796Z,20.21
2018-04-22T04:40:58.764Z,20.32
2018-04-22T04:41:58.779Z,20.24
2018-04-22T04:42:58.682Z,20.2
2018-04-22T04:43:58.619Z,20.32
2018-04-22T04:44:58.546Z,20.24
2018-04-22T04:45:58.569Z,20.2
2018-04-22T04:46:58.557Z,20.32
2018-04-22T04:47:58.787Z,20.24
2018-04-22T04:48:58.778Z,20.2
2018-04-22T04:49:58.763Z,20.32
2018-04-22T04:50:58.599Z,20.24
2018-04-22T04:51:58.681Z,20.2
2018-04-22T04:52:58.823Z,20.31
2018-04-22T04:53:58.826Z,20.24
2018-04-22T04:54:58.870Z,20.2
2018-04-22T04:55:58.547Z,20.32
2018-04-22T04:56:58.652Z,20.24
2018-04-22T04:57:58.675Z,20.2
2018-04-22T04:58:58.653Z,20.31
2018-04-22T04:59:58.712Z,20.24
2018-04-22T05:00:58.711Z,20.19
2018-04-22T05:01:58.601Z,20.31
2018-04-22T05:02:58.700Z,20.23
2018-04-22T05:03:58.590Z,20.19
2018-04-22T05:04:58.842Z,20.31
2018-04-22T05:05:58.539Z,20.24
2018-04-22T05:06:58.725Z,20.19
2018-04-22T05:07:58.638Z,20.32
2018-04-22T05:08:58.829Z,20.24
2018-04-22T05:09:58.534Z,20.2
2018-04-22T05:10:58.723Z,20.31
2018-04-22T05:11:58.713Z,20.22
2018-04-22T05:12:58.691Z,20.19
2018-04-22T05:13:58.597Z,20.31
2018-04-22T05:14:58.685Z,20.23
2018-04-22T05:15:58.849Z,20.2
2018-04-22T05:16:58.739Z,20.31
2018-04-22T05:17:58.525Z,20.24
2018-04-22T05:18:58.680Z,20.2
2018-04-22T05:19:58.704Z,20.31
2018-04-22T05:20:58.698Z,20.23
2018-04-22T05:21:58.587Z,20.19
2018-04-22T05:22:58.577Z,20.3
2018-04-22T05:23:58.625Z,20.24
2018-04-22T05:24:58.686Z,20.19
2018-04-22T05:25:58.577Z,20.31
2018-04-22T05:26:58.618Z,20.23
2018-04-22T05:27:58.531Z,20.19
2018-04-22T05:28:58.711Z,20.31
2018-04-22T05:29:58.559Z,20.23
2018-04-22T05:30:58.681Z,20.19
2018-04-22T05:31:58.623Z,20.31
2018-04-22T05:32:58.625Z,20.24
2018-04-22T05:33:58.514Z,20.19
2018-04-22T05:34:58.552Z,20.31
2018-04-22T05:35:58.521Z,20.23
2018-04-22T05:36:58.649Z,20.2
2018-04-22T05:37:58.597Z,20.31
2018-04-22T05:38:58.718Z,20.24
2018-04-22T05:39:58.588Z,20.21
2018-04-22T05:40:58.655Z,20.31
2018-04-22T05:41:58.627Z,20.24
2018-04-22T05:42:58.504Z,20.2
2018-04-22T05:43:58.742Z,20.31
2018-04-22T05:44:58.634Z,20.24
2018-04-22T05:45:58.761Z,20.19
2018-04-22T05:46:58.567Z,20.31
2018-04-22T05:47:58.629Z,20.23
2018-04-22T05:48:58.603Z,20.2
2018-04-22T05:49:58.527Z,20.31
2018-04-22T05:50:58.688Z,20.24
2018-04-22T05:51:58.769Z,20.19
2018-04-22T05:52:58.546Z,20.3
2018-04-22T05:53:58.697Z,20.24
2018-04-22T05:54:58.950Z,20.19
2018-04-22T05:55:58.695Z,20.31
2018-04-22T05:56:58.602Z,20.22
2018-04-22T05:57:58.600Z,20.19
2018-04-22T05:58:58.586Z,20.3
2018-04-22T05:59:58.640Z,20.23
2018-04-22T06:00:58.649Z,20.19
2018-04-22T06:01:58.350Z,20.3
2018-04-22T06:02:58.665Z,20.22
2018-04-22T06:03:58.723Z,20.18
2018-04-22T06:04:58.701Z,20.26
2018-04-22T06:05:58.540Z,20.18
2018-04-22T06:06:58.604Z,20.19
2018-04-22T06:07:58.851Z,20.35
2018-04-22T06:08:58.556Z,20.25
2018-04-22T06:09:58.710Z,20.21
2018-04-22T06:10:58.625Z,20.32
2018-04-22T06:11:58.568Z,20.24
2018-04-22T06:12:58.544Z,20.21
2018-04-22T06:13:58.667Z,20.31
2018-04-22T06:14:58.816Z,20.24
2018-04-22T06:15:58.777Z,20.2
2018-04-22T06:16:58.691Z,20.32
2018-04-22T06:17:58.778Z,20.23
2018-04-22T06:18:58.759Z,20.2
2018-04-22T06:19:58.524Z,20.31
2018-04-22T06:20:58.826Z,20.24
2018-04-22T06:21:58.811Z,20.2
2018-04-22T06:22:58.727Z,20.31
2018-04-22T06:23:58.724Z,20.24
2018-04-22T06:24:58.510Z,20.2
2018-04-22T06:25:58.640Z,20.32
2018-04-22T06:26:58.407Z,20.24
2018-04-22T06:27:58.586Z,20.2
2018-04-22T06:28:58.589Z,20.32
2018-04-22T06:29:58.611Z,20.23
2018-04-22T06:30:58.468Z,20.2
2018-04-22T06:31:58.758Z,20.31
2018-04-22T06:32:58.715Z,20.24
2018-04-22T06:33:58.662Z,20.2
2018-04-22T06:34:58.600Z,20.31
2018-04-22T06:35:58.533Z,20.24
2018-04-22T06:36:58.475Z,20.2
2018-04-22T06:37:58.672Z,20.31
2018-04-22T06:38:58.627Z,20.23
2018-04-22T06:39:58.477Z,20.2
2018-04-22T06:40:58.610Z,20.31
2018-04-22T06:41:58.675Z,20.24
2018-04-22T06:42:58.603Z,20.2
2018-04-22T06:43:58.440Z,20.3
2018-04-22T06:44:58.664Z,20.22
2018-04-22T06:45:58.686Z,20.19
2018-04-22T06:46:58.762Z,20.31
2018-04-22T06:47:58.645Z,20.23
2018-04-22T06:48:58.744Z,20.19
2018-04-22T06:49:58.478Z,20.31
2018-04-22T06:50:58.646Z,20.23
2018-04-22T06:51:58.479Z,20.19
2018-04-22T06:52:58.612Z,20.3
2018-04-22T06:53:58.545Z,20.22
2018-04-22T06:54:58.609Z,20.19
2018-04-22T06:55:58.715Z,20.31
2018-04-22T06:56:58.673Z,20.24
2018-04-22T06:57:58.755Z,20.05
2018-04-22T06:58:58.654Z,20.24
2018-04-22T06:59:58.539Z,20.22
2018-04-22T07:00:58.629Z,20.25
2018-04-22T07:01:58.621Z,20.38
2018-04-22T07:02:58.566Z,20.31
2018-04-22T07:03:58.678Z,20.27
2018-04-22T07:04:58.791Z,20.41
2018-04-22T07:05:58.622Z,20.31
2018-04-22T07:06:58.741Z,20.3
2018-04-22T07:07:58.474Z,20.45
2018-04-22T07:08:58.618Z,20.37
2018-04-22T07:09:58.730Z,20.31
2018-04-22T07:10:58.470Z,20.47
2018-04-22T07:11:58.597Z,20.41
2018-04-22T07:12:58.544Z,20.36
2018-04-22T07:13:58.609Z,20.51
2018-04-22T07:14:58.707Z,20.43
2018-04-22T07:15:58.513Z,20.38
2018-04-22T07:16:58.478Z,20.53
2018-04-22T07:17:58.633Z,20.49
2018-04-22T07:18:58.708Z,20.43
2018-04-22T07:19:58.493Z,20.51
2018-04-22T07:20:58.623Z,20.43
2018-04-22T07:21:58.562Z,20.39
2018-04-22T07:22:58.630Z,20.47
2018-04-22T07:23:59.042Z,20.39
2018-04-22T07:24:58.558Z,20.36
2018-04-22T07:25:58.562Z,20.47
2018-04-22T07:26:58.542Z,20.41
2018-04-22T07:27:58.566Z,20.36
2018-04-22T07:28:58.561Z,20.47
2018-04-22T07:29:58.643Z,20.39
2018-04-22T07:30:58.459Z,20.35
2018-04-22T07:31:58.638Z,20.46
2018-04-22T07:32:58.665Z,20.38
2018-04-22T07:33:58.676Z,20.33
2018-04-22T07:34:58.567Z,20.44
2018-04-22T07:35:58.598Z,20.37
2018-04-22T07:36:58.496Z,20.33
2018-04-22T07:37:58.752Z,20.43
2018-04-22T07:38:58.674Z,20.35
2018-04-22T07:39:58.514Z,20.31
2018-04-22T07:40:58.576Z,20.42
2018-04-22T07:41:58.436Z,20.34
2018-04-22T07:42:58.530Z,20.3
2018-04-22T07:43:58.628Z,20.41
2018-04-22T07:44:58.684Z,20.33
2018-04-22T07:45:58.497Z,20.3
2018-04-22T07:46:58.536Z,20.42
2018-04-22T07:47:58.721Z,20.34
2018-04-22T07:48:58.567Z,20.3
2018-04-22T07:49:58.743Z,20.41
2018-04-22T07:50:58.517Z,20.33
2018-04-22T07:51:58.594Z,20.3
2018-04-22T07:52:58.676Z,20.41
2018-04-22T07:53:58.574Z,20.33
2018-04-22T07:54:58.651Z,20.29
2018-04-22T07:55:58.472Z,20.4
2018-04-22T07:56:58.466Z,20.32
2018-04-22T07:57:58.580Z,20.29
2018-04-22T07:58:58.701Z,20.39
2018-04-22T07:59:58.504Z,20.32
2018-04-22T08:00:58.632Z,20.29
2018-04-22T08:01:58.716Z,20.4
2018-04-22T08:02:58.492Z,20.31
2018-04-22T08:03:58.484Z,20.29
2018-04-22T08:04:58.600Z,20.39
2018-04-22T08:05:58.602Z,20.31
2018-04-22T08:06:58.434Z,20.29
2018-04-22T08:07:58.674Z,20.4
2018-04-22T08:08:58.640Z,20.31
2018-04-22T08:09:58.707Z,20.28
2018-04-22T08:10:58.522Z,20.4
2018-04-22T08:11:58.591Z,20.3
2018-04-22T08:12:58.597Z,20.29
2018-04-22T08:13:58.755Z,20.4
2018-04-22T08:14:58.642Z,20.32
2018-04-22T08:15:58.638Z,20.29
2018-04-22T08:16:58.732Z,20.41
2018-04-22T08:17:58.791Z,20.32
2018-04-22T08:18:58.628Z,20.29
2018-04-22T08:19:58.720Z,20.39
2018-04-22T08:20:58.749Z,20.3
2018-04-22T08:21:58.568Z,20.28
2018-04-22T08:22:58.539Z,20.39
2018-04-22T08:23:58.669Z,20.31
2018-04-22T08:24:58.666Z,20.28
2018-04-22T08:25:58.520Z,20.39
2018-04-22T08:26:58.629Z,20.31
2018-04-22T08:27:58.604Z,20.29
2018-04-22T08:28:58.458Z,20.4
2018-04-22T08:29:58.596Z,20.3
2018-04-22T08:30:58.542Z,20.27
2018-04-22T08:31:58.410Z,20.38
2018-04-22T08:32:58.694Z,20.3
2018-04-22T08:33:59.002Z,20.27
2018-04-22T08:34:58.619Z,20.38
2018-04-22T08:35:58.576Z,20.31
2018-04-22T08:36:58.596Z,20.28
2018-04-22T08:37:58.513Z,20.38
2018-04-22T08:38:58.569Z,20.3
2018-04-22T08:39:58.665Z,20.27
2018-04-22T08:40:58.475Z,20.38
2018-04-22T08:41:58.589Z,20.3
2018-04-22T08:42:58.496Z,20.27
2018-04-22T08:43:58.911Z,20.38
2018-04-22T08:44:58.706Z,20.3
2018-04-22T08:45:58.671Z,20.26
2018-04-22T08:46:58.598Z,20.37
2018-04-22T08:47:58.558Z,20.3
2018-04-22T08:48:58.950Z,20.26
2018-04-22T08:49:58.550Z,20.38
2018-04-22T08:50:58.634Z,20.3
2018-04-22T08:51:58.709Z,20.26
2018-04-22T08:52:58.509Z,20.37
2018-04-22T08:53:58.742Z,20.29
2018-04-22T08:54:58.466Z,20.26
2018-04-22T08:55:58.598Z,20.36
2018-04-22T08:56:58.426Z,20.29
2018-04-22T08:57:58.483Z,20.26
2018-04-22T08:58:59.010Z,20.37
2018-04-22T08:59:58.625Z,20.3
2018-04-22T09:00:58.588Z,20.26
2018-04-22T09:01:58.851Z,20.37
2018-04-22T09:02:58.926Z,20.3
2018-04-22T09:03:58.560Z,20.26
2018-04-22T09:04:58.922Z,20.36
2018-04-22T09:05:58.735Z,20.28
2018-04-22T09:06:58.725Z,20.26
2018-04-22T09:07:58.652Z,20.37
2018-04-22T09:08:58.565Z,20.29
2018-04-22T09:09:58.780Z,20.25
2018-04-22T09:10:58.546Z,20.37
2018-04-22T09:11:59.083Z,20.29
2018-04-22T09:12:59.134Z,20.25
2018-04-22T09:13:58.439Z,20.36
2018-04-22T09:14:58.458Z,20.3
2018-04-22T09:15:58.766Z,20.26
2018-04-22T09:16:58.596Z,20.37
2018-04-22T09:17:58.661Z,20.29
2018-04-22T09:18:58.500Z,20.25
2018-04-22T09:19:58.876Z,20.37
2018-04-22T09:20:58.637Z,20.28
2018-04-22T09:21:58.749Z,20.25
2018-04-22T09:22:58.566Z,20.35
2018-04-22T09:23:58.662Z,20.29
2018-04-22T09:24:58.522Z,20.25
2018-04-22T09:25:58.513Z,20.35
2018-04-22T09:26:58.573Z,20.27
2018-04-22T09:27:58.887Z,20.24
2018-04-22T09:28:58.677Z,20.27
2018-04-22T09:29:58.529Z,20.1
2018-04-22T09:30:58.490Z,20.18
2018-04-22T09:31:58.593Z,20.35
2018-04-22T09:32:58.447Z,20.35
2018-04-22T09:33:58.576Z,20.32
2018-04-22T09:34:58.539Z,20.44
2018-04-22T09:35:58.538Z,20.39
2018-04-22T09:36:58.486Z,20.35
2018-04-22T09:37:58.938Z,20.53
2018-04-22T09:38:58.458Z,20.42
2018-04-22T09:39:58.433Z,20.24
2018-04-22T09:40:58.622Z,20.47
2018-04-22T09:41:58.874Z,20.37
2018-04-22T09:42:58.501Z,20.41
2018-04-22T09:43:58.722Z,20.57
2018-04-22T09:44:58.602Z,20.53
2018-04-22T09:45:59.195Z,20.49
2018-04-22T09:46:58.436Z,20.6
2018-04-22T09:47:58.425Z,20.54
2018-04-22T09:48:58.643Z,20.51
2018-04-22T09:49:58.990Z,20.63
2018-04-22T09:50:58.585Z,20.55
2018-04-22T09:51:58.543Z,20.53
2018-04-22T09:52:58.525Z,20.65
2018-04-22T09:53:58.652Z,20.59
2018-04-22T09:54:58.557Z,20.55
2018-04-22T09:55:58.667Z,20.68
2018-04-22T09:56:58.678Z,20.63
2018-04-22T09:57:58.670Z,20.57
2018-04-22T09:58:58.678Z,20.7
2018-04-22T09:59:58.467Z,20.6
2018-04-22T10:00:58.467Z,20.59
2018-04-22T10:01:58.462Z,20.72
2018-04-22T10:02:58.685Z,20.6
2018-04-22T10:03:58.643Z,20.59
2018-04-22T10:04:58.851Z,20.71
2018-04-22T10:05:58.621Z,20.61
2018-04-22T10:06:58.620Z,20.53
2018-04-22T10:07:58.680Z,20.74
2018-04-22T10:08:58.557Z,20.68
2018-04-22T10:09:58.588Z,20.61
2018-04-22T10:10:59.005Z,20.8
2018-04-22T10:11:58.472Z,20.71
2018-04-22T10:12:58.651Z,20.64
2018-04-22T10:13:58.556Z,20.81
2018-04-22T10:14:58.453Z,20.74
2018-04-22T10:15:58.660Z,20.63
2018-04-22T10:16:58.760Z,20.81
2018-04-22T10:17:58.561Z,20.74
2018-04-22T10:18:58.832Z,20.65
2018-04-22T10:19:58.765Z,20.82
2018-04-22T10:20:58.535Z,20.72
2018-04-22T10:21:58.867Z,20.68
2018-04-22T10:22:58.638Z,20.84
2018-04-22T10:23:58.783Z,20.75
2018-04-22T10:24:58.770Z,20.69
2018-04-22T10:25:58.449Z,20.87
2018-04-22T10:26:58.545Z,20.77
2018-04-22T10:27:58.537Z,20.72
2018-04-22T10:28:58.467Z,20.86
2018-04-22T10:29:58.444Z,20.79
2018-04-22T10:30:58.422Z,20.72
2018-04-22T10:31:58.504Z,20.84
2018-04-22T10:32:58.486Z,20.76
2018-04-22T10:33:58.625Z,20.74
2018-04-22T10:34:58.662Z,20.86
2018-04-22T10:35:59.704Z,20.8
2018-04-22T10:36:58.443Z,20.75
2018-04-22T10:37:58.600Z,20.89
2018-04-22T10:38:58.659Z,20.82
2018-04-22T10:39:58.937Z,20.78
2018-04-22T10:40:58.627Z,20.89
2018-04-22T10:41:58.868Z,20.82
2018-04-22T10:42:58.570Z,20.76
2018-04-22T10:43:58.509Z,20.89
2018-04-22T10:44:58.536Z,20.75
2018-04-22T10:45:58.488Z,20.69
2018-04-22T10:46:58.577Z,20.86
2018-04-22T10:47:58.641Z,20.77
2018-04-22T10:48:58.491Z,20.72
2018-04-22T10:49:58.523Z,20.88
2018-04-22T10:50:58.500Z,20.77
2018-04-22T10:51:58.681Z,20.72
2018-04-22T10:52:58.589Z,20.86
2018-04-22T10:53:58.663Z,20.77
2018-04-22T10:54:58.509Z,20.75
2018-04-22T10:55:58.527Z,20.9
2018-04-22T10:56:58.574Z,20.83
2018-04-22T10:57:58.970Z,20.74
2018-04-22T10:58:58.538Z,20.9
2018-04-22T10:59:58.608Z,20.74
2018-04-22T11:00:58.526Z,20.72
2018-04-22T11:01:58.836Z,20.88
2018-04-22T11:02:58.457Z,20.83
2018-04-22T11:03:58.499Z,20.76
2018-04-22T11:04:58.506Z,20.9
2018-04-22T11:05:58.463Z,20.84
2018-04-22T11:06:58.541Z,20.76
2018-04-22T11:07:58.506Z,20.93
2018-04-22T11:08:58.484Z,20.83
2018-04-22T11:09:58.978Z,20.89
2018-04-22T11:10:58.420Z,20.95
2018-04-22T11:11:58.625Z,20.84
2018-04-22T11:12:59.213Z,20.81
2018-04-22T11:13:58.458Z,20.93
2018-04-22T11:14:58.607Z,20.83
2018-04-22T11:15:58.681Z,20.59
2018-04-22T11:16:58.647Z,20.8
2018-04-22T11:17:58.663Z,20.74
2018-04-22T11:18:58.471Z,20.75
2018-04-22T11:19:58.591Z,20.89
2018-04-22T11:20:58.560Z,20.78
2018-04-22T11:21:58.741Z,20.75
2018-04-22T11:22:58.622Z,20.91
2018-04-22T11:23:58.636Z,20.86
2018-04-22T11:24:58.653Z,20.81
2018-04-22T11:25:58.447Z,20.94
2018-04-22T11:26:58.517Z,20.84
2018-04-22T11:27:58.490Z,20.82
2018-04-22T11:28:58.592Z,20.95
2018-04-22T11:29:58.506Z,20.89
2018-04-22T11:30:58.699Z,20.83
2018-04-22T11:31:58.772Z,20.93
2018-04-22T11:32:58.622Z,20.86
2018-04-22T11:33:58.656Z,20.79
2018-04-22T11:34:58.480Z,20.96
2018-04-22T11:35:58.566Z,20.92
2018-04-22T11:36:58.571Z,20.82
2018-04-22T11:37:58.675Z,20.99
2018-04-22T11:38:58.756Z,20.91
2018-04-22T11:39:58.596Z,20.82
2018-04-22T11:40:58.775Z,20.95
2018-04-22T11:41:58.900Z,20.85
2018-04-22T11:42:58.536Z,20.76
2018-04-22T11:43:58.597Z,20.9
2018-04-22T11:44:58.428Z,20.8
2018-04-22T11:45:58.707Z,20.73
2018-04-22T11:46:58.484Z,20.89
2018-04-22T11:47:58.635Z,20.79
2018-04-22T11:48:58.659Z,20.73
2018-04-22T11:49:58.645Z,20.89
2018-04-22T11:50:58.388Z,20.82
2018-04-22T11:51:58.503Z,20.76
2018-04-22T11:52:58.634Z,20.92
2018-04-22T11:53:58.704Z,20.79
2018-04-22T11:54:58.618Z,20.73
2018-04-22T11:55:58.661Z,20.91
2018-04-22T11:56:58.578Z,20.82
2018-04-22T11:57:58.561Z,20.72
2018-04-22T11:58:58.556Z,20.86
2018-04-22T11:59:59.168Z,20.76
2018-04-22T12:00:58.461Z,20.69
2018-04-22T12:01:58.481Z,20.85
2018-04-22T12:02:58.457Z,20.77
2018-04-22T12:03:58.562Z,20.69
2018-04-22T12:04:58.562Z,20.84
2018-04-22T12:05:58.556Z,20.77
2018-04-22T12:06:58.520Z,20.68
2018-04-22T12:07:58.571Z,20.86
2018-04-22T12:08:58.668Z,20.8
2018-04-22T12:09:58.642Z,20.77
2018-04-22T12:10:58.635Z,20.89
2018-04-22T12:11:58.583Z,20.75
2018-04-22T12:12:58.631Z,20.73
2018-04-22T12:13:58.503Z,20.84
2018-04-22T12:14:58.590Z,20.72
2018-04-22T12:15:58.418Z,20.71
2018-04-22T12:16:58.517Z,20.82
2018-04-22T12:17:58.580Z,20.71
2018-04-22T12:18:58.477Z,20.69
2018-04-22T12:19:58.483Z,20.76
2018-04-22T12:20:58.696Z,20.71
2018-04-22T12:21:58.773Z,20.63
2018-04-22T12:22:58.441Z,20.77
2018-04-22T12:23:58.495Z,20.67
2018-04-22T12:24:58.413Z,20.65
2018-04-22T12:25:58.694Z,20.83
2018-04-22T12:26:58.543Z,20.78
2018-04-22T12:27:58.597Z,20.74
2018-04-22T12:28:58.611Z,20.91
2018-04-22T12:29:58.619Z,20.84
2018-04-22T12:30:58.816Z,20.77
2018-04-22T12:31:58.575Z,20.92
2018-04-22T12:32:58.580Z,20.83
2018-04-22T12:33:58.476Z,20.81
2018-04-22T12:34:58.586Z,20.91
2018-04-22T12:35:58.711Z,20.83
2018-04-22T12:36:58.655Z,20.69
2018-04-22T12:37:58.523Z,20.95
2018-04-22T12:38:58.482Z,20.86
2018-04-22T12:39:58.675Z,20.8
2018-04-22T12:40:58.463Z,20.94
2018-04-22T12:41:58.528Z,20.85
2018-04-22T12:42:58.776Z,20.82
2018-04-22T12:43:58.799Z,20.92
2018-04-22T12:44:58.619Z,20.97
2018-04-22T12:45:58.522Z,20.93
2018-04-22T12:46:58.652Z,21.02
2018-04-22T12:47:58.740Z,20.89
2018-04-22T12:48:58.660Z,20.81
2018-04-22T12:49:58.599Z,20.97
2018-04-22T12:50:58.437Z,20.96
2018-04-22T12:51:58.573Z,20.98
2018-04-22T12:52:58.467Z,21
2018-04-22T12:53:58.635Z,21.03
2018-04-22T12:54:58.502Z,20.97
2018-04-22T12:55:58.519Z,21.11